West Jefferson, NC (28694)

11:38 PM EDT on August 22, 2014 (GMT -0400)
Downtown West Jefferson | Change Station
CLOSE
Current Station
Personal Weather Station
Location: West Jefferson, NC
Elevation: 2982 ft
Nearby Weather Stations

Elev 2982 ft 36.40 °N, 81.49 °W | Updated 8 minutes ago

Clear
Clear
68.9 °F
Feels Like 68.9 °F
N
2.0
Wind Variable Wind from West
Gusts 3.0 mph

Today
High -- | Low -- °F
--% Chance of Precip.
Yesterday
High -- | Low -- °F
Precip. -- in
6:49 AM 8:07 PM
Waning Crescent, 5% visible
Pressure 30.14 in
Visibility 10.0 miles
Clouds Clear
Dew Point 66 °F
Humidity 92%
Rainfall 0.02 in
Snow Depth Not available.
UV 0 out of 12
Pollen 8.60 out of 12
Air Quality Not available.
Flu Activity Not available.
METAR KGEV 230315Z AUTO 27006KT 10SM CLR 22/19 A3014 RMK AO2 T02200191

More Conditions Fewer Conditions

Pressure 30.14 in
Visibility 10.0 miles
Clouds Clear
Dew Point 66 °F
Humidity 92%
Rainfall 0.02 in
Snow Depth Not available.
UV 0 out of 12
Pollen 8.60 out of 12
Air Quality Not available.
Flu Activity Not available.
METAR KGEV 230315Z AUTO 27006KT 10SM CLR 22/19 A3014 RMK AO2 T02200191

More Conditions Fewer Conditions

Nowcast | as of 11:16 PM EDT on August 22, 2014

at 1114 PM EDT...Doppler radar indicated isolated moderate to heavy showers...along a line extending from Flatwood to Peoria moving southeast at 30 mph. A rumble or two of thunder cannot be ruled out. Locations impacted include... Boone... Jefferson... West Jefferson... Blowing Rock... and Beech Mountain.

×

10-Day Weather Forecast

Almanac

Astronomy

Aug. 22, 2014 Rise Set
Actual Time 6:49 AM EDT 8:07 PM EDT
Civil Twilight 6:22 AM EDT 8:34 PM EDT
Nautical Twilight 5:50 AM EDT 9:06 PM EDT
Astronomical Twilight 5:16 AM EDT 9:39 PM EDT
Moon 4:12 AM EDT (8/22) 6:13 PM EDT (8/22)
Length of Visible Light 14h 11m
Length of Day
13h 18m
Tomorrow will be 2m 8s shorter.
Waning Crescent, 5% of the Moon is Illuminated
Today
Waning Crescent
Aug 25
New
Sep 2
First Quarter
Sep 8
Full
Sep 15
Last Quarter

Today's Extremes

State Highs State Lows

Community

WunderPhotos

Upload Photos

1,746,352 photos uploaded!

WunderBlogs® & News

Nearby

Snow Depth

Station Depth Elevation
No new snow has been reported.

Earthquake Activity

City Distance Mag. Time & Date
No recent earthquake activity has been reported nearby.
Minimum magnitude displayed is 2.5.

Coastal Water Temperatures

Place Temperature
No Stations Reporting

Nearby Weather Stations